sensor_id;sensor_type;location;lat;lon;timestamp;pressure;altitude;pressure_sealevel;temperature;humidity
67377;BME280;54261;46.086;6.588;2023-03-22T00:04:38;92442.13;;;8.49;36.68
67377;BME280;54261;46.086;6.588;2023-03-22T00:09:39;92451.59;;;8.78;36.34
67377;BME280;54261;46.086;6.588;2023-03-22T00:14:41;92447.84;;;8.34;36.55
67377;BME280;54261;46.086;6.588;2023-03-22T00:19:43;92442.22;;;7.99;37.08
67377;BME280;54261;46.086;6.588;2023-03-22T00:24:45;92446.75;;;8.35;36.53
67377;BME280;54261;46.086;6.588;2023-03-22T00:29:47;92435.06;;;8.31;36.56
67377;BME280;54261;46.086;6.588;2023-03-22T00:34:49;92426.25;;;9.08;35.26
67377;BME280;54261;46.086;6.588;2023-03-22T00:39:51;92432.84;;;8.78;35.55
67377;BME280;54261;46.086;6.588;2023-03-22T00:44:55;92433.66;;;9.11;35.31
67377;BME280;54261;46.086;6.588;2023-03-22T00:49:57;92444.69;;;8.55;36.03
67377;BME280;54261;46.086;6.588;2023-03-22T00:54:59;92427.66;;;8.28;35.86
67377;BME280;54261;46.086;6.588;2023-03-22T01:00:03;92415.31;;;7.95;36.55
67377;BME280;54261;46.086;6.588;2023-03-22T01:05:14;92422.72;;;7.98;36.51
67377;BME280;54261;46.086;6.588;2023-03-22T01:10:17;92432.78;;;8.61;35.58
67377;BME280;54261;46.086;6.588;2023-03-22T01:15:19;92407.25;;;8.95;35.13
67377;BME280;54261;46.086;6.588;2023-03-22T01:20:25;92406.50;;;8.63;34.89
67377;BME280;54261;46.086;6.588;2023-03-22T01:25:27;92409.75;;;8.28;35.71
67377;BME280;54261;46.086;6.588;2023-03-22T01:30:29;92408.88;;;8.73;35.66
67377;BME280;54261;46.086;6.588;2023-03-22T01:35:31;92404.41;;;9.23;35.10
67377;BME280;54261;46.086;6.588;2023-03-22T01:40:34;92391.91;;;8.15;35.95
67377;BME280;54261;46.086;6.588;2023-03-22T01:45:50;92396.56;;;8.63;35.11
67377;BME280;54261;46.086;6.588;2023-03-22T01:51:09;92359.91;;;8.10;35.39
67377;BME280;54261;46.086;6.588;2023-03-22T01:56:42;92374.28;;;8.45;35.93
67377;BME280;54261;46.086;6.588;2023-03-22T02:01:52;92379.91;;;8.35;35.78
67377;BME280;54261;46.086;6.588;2023-03-22T02:06:55;92374.81;;;7.28;37.45
67377;BME280;54261;46.086;6.588;2023-03-22T02:28:14;92364.28;;;7.46;37.58
67377;BME280;54261;46.086;6.588;2023-03-22T02:44:05;92357.13;;;7.92;36.57
67377;BME280;54261;46.086;6.588;2023-03-22T02:49:15;92352.16;;;7.62;36.85
67377;BME280;54261;46.086;6.588;2023-03-22T02:54:32;92359.09;;;8.32;36.01
67377;BME280;54261;46.086;6.588;2023-03-22T02:59:37;92356.91;;;7.88;36.09
67377;BME280;54261;46.086;6.588;2023-03-22T03:04:46;92358.25;;;8.45;35.72
67377;BME280;54261;46.086;6.588;2023-03-22T03:09:50;92355.47;;;8.28;35.67
67377;BME280;54261;46.086;6.588;2023-03-22T03:14:53;92360.38;;;7.66;35.69
67377;BME280;54261;46.086;6.588;2023-03-22T03:20:25;92364.34;;;7.91;36.64
67377;BME280;54261;46.086;6.588;2023-03-22T03:25:48;92351.03;;;7.77;36.17
67377;BME280;54261;46.086;6.588;2023-03-22T03:31:07;92360.00;;;7.82;36.56
67377;BME280;54261;46.086;6.588;2023-03-22T03:36:15;92361.84;;;7.72;36.25
67377;BME280;54261;46.086;6.588;2023-03-22T03:41:25;92367.34;;;7.90;35.71
67377;BME280;54261;46.086;6.588;2023-03-22T03:46:29;92356.56;;;8.27;35.60
67377;BME280;54261;46.086;6.588;2023-03-22T03:51:31;92369.94;;;8.27;35.60
67377;BME280;54261;46.086;6.588;2023-03-22T03:56:34;92345.31;;;8.07;35.56
67377;BME280;54261;46.086;6.588;2023-03-22T04:01:36;92371.81;;;8.26;35.40
67377;BME280;54261;46.086;6.588;2023-03-22T04:06:47;92365.53;;;7.85;35.81
67377;BME280;54261;46.086;6.588;2023-03-22T04:11:54;92362.00;;;7.39;36.71
67377;BME280;54261;46.086;6.588;2023-03-22T04:16:57;92360.97;;;8.00;35.36
67377;BME280;54261;46.086;6.588;2023-03-22T04:21:59;92357.41;;;7.68;35.75
67377;BME280;54261;46.086;6.588;2023-03-22T04:27:01;92349.84;;;7.47;36.38
67377;BME280;54261;46.086;6.588;2023-03-22T04:32:23;92364.75;;;7.85;35.95
67377;BME280;54261;46.086;6.588;2023-03-22T04:37:27;92368.63;;;7.78;35.98
67377;BME280;54261;46.086;6.588;2023-03-22T04:42:50;92369.84;;;8.09;35.59
67377;BME280;54261;46.086;6.588;2023-03-22T04:48:09;92368.63;;;6.30;37.90
67377;BME280;54261;46.086;6.588;2023-03-22T04:53:12;92364.34;;;7.55;36.72
67377;BME280;54261;46.086;6.588;2023-03-22T04:58:17;92350.09;;;7.59;35.98
67377;BME280;54261;46.086;6.588;2023-03-22T05:03:23;92350.00;;;7.14;36.92
67377;BME280;54261;46.086;6.588;2023-03-22T05:08:27;92353.88;;;6.93;37.13
67377;BME280;54261;46.086;6.588;2023-03-22T05:13:29;92357.13;;;7.55;36.61
67377;BME280;54261;46.086;6.588;2023-03-22T05:18:32;92334.69;;;7.56;36.02
67377;BME280;54261;46.086;6.588;2023-03-22T05:23:34;92348.50;;;7.07;37.19
67377;BME280;54261;46.086;6.588;2023-03-22T05:28:37;92352.75;;;7.08;37.52
67377;BME280;54261;46.086;6.588;2023-03-22T05:33:44;92348.72;;;7.25;36.86
67377;BME280;54261;46.086;6.588;2023-03-22T05:38:50;92322.63;;;6.94;35.66
67377;BME280;54261;46.086;6.588;2023-03-22T05:43:52;92333.47;;;7.62;35.50
67377;BME280;54261;46.086;6.588;2023-03-22T05:48:54;92336.75;;;7.59;35.78
67377;BME280;54261;46.086;6.588;2023-03-22T05:53:57;92334.56;;;7.61;35.75
67377;BME280;54261;46.086;6.588;2023-03-22T05:59:06;92329.50;;;7.23;36.42
67377;BME280;54261;46.086;6.588;2023-03-22T06:04:09;92338.53;;;7.50;35.90
67377;BME280;54261;46.086;6.588;2023-03-22T06:09:24;92326.28;;;7.49;35.44
67377;BME280;54261;46.086;6.588;2023-03-22T06:14:26;92345.59;;;6.81;35.95
67377;BME280;54261;46.086;6.588;2023-03-22T06:19:42;92347.69;;;7.35;35.67
67377;BME280;54261;46.086;6.588;2023-03-22T06:24:46;92331.59;;;7.63;35.09
67377;BME280;54261;46.086;6.588;2023-03-22T06:29:54;92354.59;;;7.73;35.07
67377;BME280;54261;46.086;6.588;2023-03-22T06:34:59;92364.47;;;8.32;34.54
67377;BME280;54261;46.086;6.588;2023-03-22T06:40:03;92360.91;;;7.91;35.98
67377;BME280;54261;46.086;6.588;2023-03-22T06:45:06;92360.78;;;6.94;37.41
67377;BME280;54261;46.086;6.588;2023-03-22T06:50:11;92362.38;;;7.83;36.08
67377;BME280;54261;46.086;6.588;2023-03-22T06:55:41;92366.66;;;7.33;36.75
67377;BME280;54261;46.086;6.588;2023-03-22T07:00:54;92368.91;;;7.91;35.52
67377;BME280;54261;46.086;6.588;2023-03-22T07:06:06;92366.25;;;8.14;35.63
67377;BME280;54261;46.086;6.588;2023-03-22T07:11:11;92365.03;;;8.20;35.42
67377;BME280;54261;46.086;6.588;2023-03-22T07:16:15;92355.63;;;7.26;37.04
67377;BME280;54261;46.086;6.588;2023-03-22T07:21:25;92338.47;;;8.01;36.42
67377;BME280;54261;46.086;6.588;2023-03-22T07:26:33;92357.91;;;8.15;36.66
67377;BME280;54261;46.086;6.588;2023-03-22T07:31:37;92342.41;;;7.80;37.14
67377;BME280;54261;46.086;6.588;2023-03-22T07:36:45;92343.06;;;7.63;38.05
67377;BME280;54261;46.086;6.588;2023-03-22T07:41:47;92343.63;;;8.20;36.86
67377;BME280;54261;46.086;6.588;2023-03-22T07:46:55;92324.59;;;7.76;37.08
67377;BME280;54261;46.086;6.588;2023-03-22T07:52:04;92345.41;;;8.02;36.40
67377;BME280;54261;46.086;6.588;2023-03-22T07:57:07;92363.81;;;8.58;35.18
67377;BME280;54261;46.086;6.588;2023-03-22T08:02:14;92358.38;;;8.72;35.71
67377;BME280;54261;46.086;6.588;2023-03-22T08:07:23;92370.84;;;8.22;36.03
67377;BME280;54261;46.086;6.588;2023-03-22T08:12:28;92367.31;;;8.35;35.36
67377;BME280;54261;46.086;6.588;2023-03-22T08:17:39;92374.94;;;9.23;35.02
67377;BME280;54261;46.086;6.588;2023-03-22T08:22:47;92376.94;;;9.93;34.61
67377;BME280;54261;46.086;6.588;2023-03-22T08:28:18;92373.28;;;8.96;35.31
67377;BME280;54261;46.086;6.588;2023-03-22T08:33:21;92375.81;;;11.34;34.98
67377;BME280;54261;46.086;6.588;2023-03-22T08:38:24;92379.03;;;10.70;32.72
67377;BME280;54261;46.086;6.588;2023-03-22T08:43:27;92370.34;;;11.51;31.41
67377;BME280;54261;46.086;6.588;2023-03-22T08:48:30;92355.00;;;8.26;35.33
67377;BME280;54261;46.086;6.588;2023-03-22T08:53:40;92379.63;;;9.84;34.56
67377;BME280;54261;46.086;6.588;2023-03-22T08:59:06;92382.34;;;8.86;36.47
67377;BME280;54261;46.086;6.588;2023-03-22T09:04:14;92378.53;;;7.41;39.54
67377;BME280;54261;46.086;6.588;2023-03-22T09:09:16;92361.09;;;9.30;37.17
67377;BME280;54261;46.086;6.588;2023-03-22T09:14:21;92365.16;;;7.41;37.16
67377;BME280;54261;46.086;6.588;2023-03-22T09:19:24;92361.22;;;6.07;40.65
67377;BME280;54261;46.086;6.588;2023-03-22T09:24:26;92364.25;;;6.95;37.93
67377;BME280;54261;46.086;6.588;2023-03-22T09:29:31;92359.13;;;7.49;37.12
67377;BME280;54261;46.086;6.588;2023-03-22T09:34:37;92350.31;;;6.84;36.51
67377;BME280;54261;46.086;6.588;2023-03-22T09:39:40;92338.97;;;6.31;35.91
67377;BME280;54261;46.086;6.588;2023-03-22T09:44:47;92356.63;;;6.13;37.65
67377;BME280;54261;46.086;6.588;2023-03-22T09:50:03;92361.59;;;6.34;37.50
67377;BME280;54261;46.086;6.588;2023-03-22T10:00:38;92359.97;;;11.62;29.11
67377;BME280;54261;46.086;6.588;2023-03-22T10:05:49;92362.34;;;11.03;31.89
67377;BME280;54261;46.086;6.588;2023-03-22T10:10:56;92354.19;;;13.82;26.81
67377;BME280;54261;46.086;6.588;2023-03-22T10:16:02;92360.63;;;13.65;26.69
67377;BME280;54261;46.086;6.588;2023-03-22T10:21:08;92336.28;;;14.75;26.06
67377;BME280;54261;46.086;6.588;2023-03-22T10:26:20;92347.97;;;15.44;23.66
67377;BME280;54261;46.086;6.588;2023-03-22T10:31:25;92353.00;;;15.13;23.90
67377;BME280;54261;46.086;6.588;2023-03-22T10:36:30;92346.63;;;10.84;29.03
67377;BME280;54261;46.086;6.588;2023-03-22T10:41:35;92320.78;;;11.61;28.70
67377;BME280;54261;46.086;6.588;2023-03-22T10:46:39;92336.41;;;13.15;27.08
67377;BME280;54261;46.086;6.588;2023-03-22T10:51:47;92332.44;;;15.24;25.47
67377;BME280;54261;46.086;6.588;2023-03-22T10:56:50;92303.59;;;9.80;31.64
67377;BME280;54261;46.086;6.588;2023-03-22T11:01:52;92320.84;;;11.73;29.53
67377;BME280;54261;46.086;6.588;2023-03-22T11:06:54;92326.13;;;11.18;28.88
67377;BME280;54261;46.086;6.588;2023-03-22T11:12:01;92313.38;;;11.37;29.74
67377;BME280;54261;46.086;6.588;2023-03-22T11:17:09;92308.06;;;15.92;24.56
67377;BME280;54261;46.086;6.588;2023-03-22T11:27:29;92277.56;;;11.66;28.93
67377;BME280;54261;46.086;6.588;2023-03-22T11:32:36;92295.00;;;13.61;28.27
67377;BME280;54261;46.086;6.588;2023-03-22T11:37:50;92295.22;;;11.03;30.96
67377;BME280;54261;46.086;6.588;2023-03-22T11:43:16;92296.09;;;10.47;32.28
67377;BME280;54261;46.086;6.588;2023-03-22T11:48:23;92293.31;;;14.54;28.17
67377;BME280;54261;46.086;6.588;2023-03-22T11:53:26;92289.19;;;12.47;30.34
67377;BME280;54261;46.086;6.588;2023-03-22T12:03:42;92264.41;;;8.73;32.18
67377;BME280;54261;46.086;6.588;2023-03-22T12:08:55;92280.66;;;12.44;29.13
67377;BME280;54261;46.086;6.588;2023-03-22T12:14:03;92276.94;;;11.48;28.34
67377;BME280;54261;46.086;6.588;2023-03-22T12:19:25;92268.41;;;11.88;30.17
67377;BME280;54261;46.086;6.588;2023-03-22T12:24:31;92268.34;;;14.89;26.51
67377;BME280;54261;46.086;6.588;2023-03-22T12:29:35;92254.47;;;15.43;24.88
67377;BME280;54261;46.086;6.588;2023-03-22T12:34:41;92249.47;;;12.31;28.75
67377;BME280;54261;46.086;6.588;2023-03-22T12:39:52;92248.94;;;13.12;28.69
67377;BME280;54261;46.086;6.588;2023-03-22T12:45:02;92222.84;;;14.75;27.24
67377;BME280;54261;46.086;6.588;2023-03-22T12:55:22;92237.78;;;15.57;26.26
67377;BME280;54261;46.086;6.588;2023-03-22T13:00:27;92234.47;;;16.73;24.58
67377;BME280;54261;46.086;6.588;2023-03-22T13:05:32;92222.31;;;15.96;26.00
67377;BME280;54261;46.086;6.588;2023-03-22T13:26:13;92203.78;;;18.11;25.11
67377;BME280;54261;46.086;6.588;2023-03-22T13:31:33;92196.72;;;14.15;28.47
67377;BME280;54261;46.086;6.588;2023-03-22T13:36:36;92198.06;;;13.93;29.03
67377;BME280;54261;46.086;6.588;2023-03-22T13:41:38;92187.47;;;13.43;30.82
67377;BME280;54261;46.086;6.588;2023-03-22T13:51:43;92200.69;;;14.21;27.75
67377;BME280;54261;46.086;6.588;2023-03-22T13:56:57;92185.25;;;13.33;29.35
67377;BME280;54261;46.086;6.588;2023-03-22T14:12:47;92194.59;;;16.23;24.71
67377;BME280;54261;46.086;6.588;2023-03-22T14:17:58;92178.47;;;16.30;25.63
67377;BME280;54261;46.086;6.588;2023-03-22T14:23:13;92185.69;;;15.60;24.40
67377;BME280;54261;46.086;6.588;2023-03-22T14:28:21;92175.16;;;15.35;26.30
67377;BME280;54261;46.086;6.588;2023-03-22T14:33:31;92175.59;;;17.50;23.21
67377;BME280;54261;46.086;6.588;2023-03-22T14:38:40;92169.38;;;17.19;22.51
67377;BME280;54261;46.086;6.588;2023-03-22T14:43:44;92161.44;;;16.53;22.61
67377;BME280;54261;46.086;6.588;2023-03-22T14:48:51;92164.84;;;16.73;20.43
67377;BME280;54261;46.086;6.588;2023-03-22T14:53:53;92162.53;;;15.82;21.34
67377;BME280;54261;46.086;6.588;2023-03-22T14:58:57;92162.69;;;15.89;22.31
67377;BME280;54261;46.086;6.588;2023-03-22T15:04:01;92151.38;;;14.53;22.19
67377;BME280;54261;46.086;6.588;2023-03-22T15:09:08;92166.84;;;16.76;19.89
67377;BME280;54261;46.086;6.588;2023-03-22T15:14:11;92146.88;;;15.72;22.84
67377;BME280;54261;46.086;6.588;2023-03-22T15:19:17;92154.13;;;16.07;21.83
67377;BME280;54261;46.086;6.588;2023-03-22T15:25:01;92152.19;;;18.48;20.05
67377;BME280;54261;46.086;6.588;2023-03-22T15:30:06;92152.66;;;17.14;20.91
67377;BME280;54261;46.086;6.588;2023-03-22T15:35:12;92151.81;;;16.83;20.64
67377;BME280;54261;46.086;6.588;2023-03-22T15:40:42;92153.34;;;15.87;23.02
67377;BME280;54261;46.086;6.588;2023-03-22T15:46:19;92140.44;;;16.46;22.17
67377;BME280;54261;46.086;6.588;2023-03-22T15:51:22;92139.38;;;17.05;20.81
67377;BME280;54261;46.086;6.588;2023-03-22T15:56:30;92130.56;;;15.88;21.71
67377;BME280;54261;46.086;6.588;2023-03-22T16:01:34;92142.25;;;16.15;21.79
67377;BME280;54261;46.086;6.588;2023-03-22T16:06:42;92143.53;;;15.78;22.00
67377;BME280;54261;46.086;6.588;2023-03-22T16:11:44;92128.38;;;14.95;23.47
67377;BME280;54261;46.086;6.588;2023-03-22T16:16:46;92138.00;;;15.71;22.61
67377;BME280;54261;46.086;6.588;2023-03-22T16:21:47;92146.13;;;15.94;22.15
67377;BME280;54261;46.086;6.588;2023-03-22T16:26:48;92140.06;;;15.58;23.31
67377;BME280;54261;46.086;6.588;2023-03-22T16:31:50;92143.28;;;16.30;22.59
67377;BME280;54261;46.086;6.588;2023-03-22T16:36:50;92150.88;;;16.71;21.56
67377;BME280;54261;46.086;6.588;2023-03-22T16:41:51;92150.91;;;17.29;21.74
67377;BME280;54261;46.086;6.588;2023-03-22T16:46:54;92153.88;;;17.81;20.32
67377;BME280;54261;46.086;6.588;2023-03-22T16:51:54;92138.19;;;16.25;22.43
67377;BME280;54261;46.086;6.588;2023-03-22T16:56:55;92154.31;;;17.53;21.09
67377;BME280;54261;46.086;6.588;2023-03-22T17:01:56;92160.13;;;17.24;21.85
67377;BME280;54261;46.086;6.588;2023-03-22T17:06:57;92155.59;;;18.90;20.80
67377;BME280;54261;46.086;6.588;2023-03-22T17:11:57;92160.25;;;19.57;20.02
67377;BME280;54261;46.086;6.588;2023-03-22T17:16:58;92182.34;;;19.48;19.81
67377;BME280;54261;46.086;6.588;2023-03-22T17:21:59;92182.78;;;19.54;20.42
67377;BME280;54261;46.086;6.588;2023-03-22T17:27:00;92199.38;;;19.34;20.72
67377;BME280;54261;46.086;6.588;2023-03-22T17:32:04;92196.84;;;19.00;21.18
67377;BME280;54261;46.086;6.588;2023-03-22T17:37:05;92210.00;;;18.11;22.04
67377;BME280;54261;46.086;6.588;2023-03-22T17:42:10;92221.47;;;17.97;22.93
67377;BME280;54261;46.086;6.588;2023-03-22T17:47:12;92214.50;;;18.30;21.70
67377;BME280;54261;46.086;6.588;2023-03-22T17:52:14;92198.22;;;16.54;21.58
67377;BME280;54261;46.086;6.588;2023-03-22T17:57:15;92216.44;;;16.34;21.20
67377;BME280;54261;46.086;6.588;2023-03-22T18:02:16;92202.34;;;16.24;21.74
67377;BME280;54261;46.086;6.588;2023-03-22T18:07:18;92218.22;;;16.96;21.30
67377;BME280;54261;46.086;6.588;2023-03-22T18:12:21;92198.75;;;15.77;23.16
67377;BME280;54261;46.086;6.588;2023-03-22T18:17:21;92212.03;;;16.26;22.54
67377;BME280;54261;46.086;6.588;2023-03-22T18:22:23;92227.56;;;16.52;21.71
67377;BME280;54261;46.086;6.588;2023-03-22T18:27:24;92214.91;;;14.18;26.41
67377;BME280;54261;46.086;6.588;2023-03-22T18:32:25;92227.34;;;14.39;26.52
67377;BME280;54261;46.086;6.588;2023-03-22T18:37:25;92225.84;;;15.06;26.17
67377;BME280;54261;46.086;6.588;2023-03-22T18:42:26;92223.81;;;15.35;24.66
67377;BME280;54261;46.086;6.588;2023-03-22T18:47:27;92222.94;;;14.63;27.07
67377;BME280;54261;46.086;6.588;2023-03-22T18:52:28;92222.13;;;14.78;25.99
67377;BME280;54261;46.086;6.588;2023-03-22T18:57:29;92225.25;;;15.48;25.92
67377;BME280;54261;46.086;6.588;2023-03-22T19:02:30;92221.06;;;15.51;25.80
67377;BME280;54261;46.086;6.588;2023-03-22T19:07:31;92222.59;;;14.80;26.49
67377;BME280;54261;46.086;6.588;2023-03-22T19:12:33;92221.28;;;14.90;26.06
67377;BME280;54261;46.086;6.588;2023-03-22T19:17:34;92203.69;;;14.80;26.31
67377;BME280;54261;46.086;6.588;2023-03-22T19:22:37;92211.94;;;14.07;27.50
67377;BME280;54261;46.086;6.588;2023-03-22T19:27:38;92227.38;;;13.94;27.84
67377;BME280;54261;46.086;6.588;2023-03-22T19:32:38;92203.47;;;13.93;28.17
67377;BME280;54261;46.086;6.588;2023-03-22T19:37:39;92220.06;;;13.38;28.47
67377;BME280;54261;46.086;6.588;2023-03-22T19:42:40;92221.94;;;14.23;28.41
67377;BME280;54261;46.086;6.588;2023-03-22T19:47:41;92224.56;;;13.75;28.46
67377;BME280;54261;46.086;6.588;2023-03-22T19:52:42;92210.22;;;13.87;28.40
67377;BME280;54261;46.086;6.588;2023-03-22T19:57:44;92215.09;;;13.81;28.19
67377;BME280;54261;46.086;6.588;2023-03-22T20:02:45;92219.00;;;11.93;31.49
67377;BME280;54261;46.086;6.588;2023-03-22T20:07:48;92210.75;;;13.23;28.47
67377;BME280;54261;46.086;6.588;2023-03-22T20:12:49;92231.16;;;13.77;27.46
67377;BME280;54261;46.086;6.588;2023-03-22T20:17:50;92224.78;;;13.28;29.36
67377;BME280;54261;46.086;6.588;2023-03-22T20:22:51;92230.72;;;13.75;28.11
67377;BME280;54261;46.086;6.588;2023-03-22T20:27:53;92219.13;;;14.03;27.30
67377;BME280;54261;46.086;6.588;2023-03-22T20:32:55;92227.22;;;13.87;26.80
67377;BME280;54261;46.086;6.588;2023-03-22T20:37:55;92228.13;;;14.23;26.54
67377;BME280;54261;46.086;6.588;2023-03-22T20:42:56;92237.53;;;14.46;26.99
67377;BME280;54261;46.086;6.588;2023-03-22T20:47:57;92238.91;;;14.23;28.14
67377;BME280;54261;46.086;6.588;2023-03-22T20:52:57;92230.66;;;13.72;28.62
67377;BME280;54261;46.086;6.588;2023-03-22T20:57:58;92243.28;;;13.83;27.27
67377;BME280;54261;46.086;6.588;2023-03-22T21:02:59;92245.84;;;13.51;27.86
67377;BME280;54261;46.086;6.588;2023-03-22T21:08:00;92248.94;;;13.25;27.82
67377;BME280;54261;46.086;6.588;2023-03-22T21:13:01;92254.81;;;13.55;26.88
67377;BME280;54261;46.086;6.588;2023-03-22T21:18:02;92248.41;;;12.94;29.06
67377;BME280;54261;46.086;6.588;2023-03-22T21:23:03;92258.59;;;12.64;28.94
67377;BME280;54261;46.086;6.588;2023-03-22T21:28:05;92244.22;;;12.72;28.99
67377;BME280;54261;46.086;6.588;2023-03-22T21:33:07;92251.19;;;12.73;30.08
67377;BME280;54261;46.086;6.588;2023-03-22T21:38:08;92241.34;;;12.90;29.41
67377;BME280;54261;46.086;6.588;2023-03-22T21:43:09;92241.44;;;13.06;30.63
67377;BME280;54261;46.086;6.588;2023-03-22T21:48:10;92241.88;;;13.08;30.47
67377;BME280;54261;46.086;6.588;2023-03-22T21:53:13;92245.91;;;13.26;29.32
67377;BME280;54261;46.086;6.588;2023-03-22T21:58:15;92228.44;;;11.99;31.75
67377;BME280;54261;46.086;6.588;2023-03-22T22:03:17;92236.94;;;12.72;30.09
67377;BME280;54261;46.086;6.588;2023-03-22T22:08:19;92245.81;;;13.10;29.53
67377;BME280;54261;46.086;6.588;2023-03-22T22:13:21;92226.84;;;13.07;30.14
67377;BME280;54261;46.086;6.588;2023-03-22T22:18:23;92258.16;;;13.65;29.68
67377;BME280;54261;46.086;6.588;2023-03-22T22:23:29;92244.31;;;13.79;28.63
67377;BME280;54261;46.086;6.588;2023-03-22T22:28:31;92260.88;;;13.65;28.48
67377;BME280;54261;46.086;6.588;2023-03-22T22:33:31;92264.66;;;13.76;28.31
67377;BME280;54261;46.086;6.588;2023-03-22T22:38:32;92253.59;;;13.40;29.45
67377;BME280;54261;46.086;6.588;2023-03-22T22:43:33;92248.94;;;13.78;28.80
67377;BME280;54261;46.086;6.588;2023-03-22T22:48:36;92274.22;;;12.95;29.23
67377;BME280;54261;46.086;6.588;2023-03-22T22:53:38;92248.66;;;13.42;29.26
67377;BME280;54261;46.086;6.588;2023-03-22T22:58:39;92270.50;;;13.12;29.97
67377;BME280;54261;46.086;6.588;2023-03-22T23:03:40;92262.97;;;13.18;29.33
67377;BME280;54261;46.086;6.588;2023-03-22T23:08:42;92257.13;;;13.16;30.00
67377;BME280;54261;46.086;6.588;2023-03-22T23:13:45;92261.63;;;13.24;29.43
67377;BME280;54261;46.086;6.588;2023-03-22T23:18:48;92264.22;;;13.21;29.37
67377;BME280;54261;46.086;6.588;2023-03-22T23:23:54;92261.28;;;13.26;29.89
67377;BME280;54261;46.086;6.588;2023-03-22T23:28:55;92267.03;;;13.12;29.94
67377;BME280;54261;46.086;6.588;2023-03-22T23:33:58;92266.97;;;12.50;29.91
67377;BME280;54261;46.086;6.588;2023-03-22T23:39:03;92261.16;;;12.60;29.49
67377;BME280;54261;46.086;6.588;2023-03-22T23:44:04;92240.59;;;12.30;30.83
67377;BME280;54261;46.086;6.588;2023-03-22T23:49:05;92259.81;;;13.28;29.63
67377;BME280;54261;46.086;6.588;2023-03-22T23:54:06;92259.16;;;12.94;29.17
67377;BME280;54261;46.086;6.588;2023-03-22T23:59:07;92254.94;;;12.35;31.00
